Terminal Aerodrome Forecast
Issued by NWS

Home | Current Version | Previous Version | Text Only | Print | Product List | Glossary On
Versions: 1 2 3 4 5 6 7 8 9 10 11 12 13 14 15 16 17 18 19 20
000
FTAK31 PAJN 240456 AAC
TAFAJN
TAF AMD
PAJN 240456Z 2405/2424 VRB03KT 6SM BCFG SCT003 BKN100
      TEMPO 2405/2408 1/2SM FZFG BKN002 BKN100
     FM241400 08004KT P6SM OVC100
     FM241800 09008KT 4SM -SN OVC030
     FM242000 09008KT 1 1/2SM -SN OVC018=

USA.gov is the U.S. government's official web portal to all federal, state and local government web resources and services.